Time;durP1;ratioP1;P1;durP2;ratioP2;P2;SDS_P1;SDS_P2;PMS_P1;PMS_P2;Temp;Humidity;BMP_temperature;BMP_pressure;BME280_temperature;BME280_humidity;BME280_pressure;Samples;Min_cycle;Max_cycle;Signal;HPM_P1;HPM_P2
2023/08/28 00:00:28;;;;;;;1.33;0.55;;;24.30;49.60;;;;;;5078925;28;20024;-67
2023/08/28 00:02:54;;;;;;;2.15;0.65;;;24.20;49.60;;;;;;5078352;28;20028;-69
2023/08/28 00:05:21;;;;;;;0.88;0.57;;;24.20;49.60;;;;;;5079969;28;20118;-66
2023/08/28 00:07:47;;;;;;;1.33;0.70;;;24.20;49.60;;;;;;5075444;28;20028;-65
2023/08/28 00:10:13;;;;;;;1.60;0.50;;;24.20;49.70;;;;;;5057548;28;20109;-67
2023/08/28 00:12:40;;;;;;;0.40;0.40;;;24.20;49.70;;;;;;5072395;28;20104;-66
2023/08/28 00:15:08;;;;;;;1.45;0.75;;;24.20;49.70;;;;;;5072053;28;20207;-67
2023/08/28 00:17:33;;;;;;;1.40;0.60;;;24.20;49.70;;;;;;5056164;28;20028;-67
2023/08/28 00:19:59;;;;;;;0.85;0.80;;;24.20;49.70;;;;;;5074495;28;20047;-68
2023/08/28 00:22:25;;;;;;;0.70;0.60;;;24.20;49.70;;;;;;5074363;28;20115;-68
2023/08/28 00:24:51;;;;;;;0.80;0.52;;;24.20;49.80;;;;;;5088604;28;20421;-65
2023/08/28 00:27:17;;;;;;;0.95;0.70;;;24.20;49.80;;;;;;5072121;28;20039;-67
2023/08/28 00:29:43;;;;;;;1.30;0.60;;;24.20;49.80;;;;;;5072226;28;20389;-66
2023/08/28 00:32:09;;;;;;;0.90;0.70;;;24.20;49.80;;;;;;5057445;28;20089;-65
2023/08/28 00:34:35;;;;;;;1.27;0.45;;;24.20;49.80;;;;;;5040553;28;20076;-66
2023/08/28 00:37:03;;;;;;;0.77;0.50;;;24.20;49.90;;;;;;5036514;28;20036;-65
2023/08/28 00:39:30;;;;;;;0.60;0.40;;;24.20;49.90;;;;;;5061215;28;20087;-68
2023/08/28 00:41:56;;;;;;;1.05;0.60;;;24.20;49.90;;;;;;5063667;28;20111;-67
2023/08/28 00:44:22;;;;;;;0.90;0.63;;;24.20;49.90;;;;;;5062427;28;20040;-68
2023/08/28 00:46:48;;;;;;;0.77;0.40;;;24.20;49.90;;;;;;5075666;28;20036;-66
2023/08/28 00:49:13;;;;;;;0.70;0.50;;;24.10;49.80;;;;;;5053104;28;20435;-67
2023/08/28 00:51:41;;;;;;;1.05;0.70;;;24.20;49.90;;;;;;5052100;28;20063;-66
2023/08/28 00:54:07;;;;;;;0.77;0.57;;;24.20;49.90;;;;;;5078825;28;20482;-68
2023/08/28 00:56:34;;;;;;;0.57;0.50;;;24.10;49.90;;;;;;5058339;28;20109;-67
2023/08/28 00:59:00;;;;;;;0.68;0.57;;;24.10;49.90;;;;;;5067897;28;20317;-67
2023/08/28 01:01:26;;;;;;;1.08;0.63;;;24.10;49.90;;;;;;5053597;28;20032;-68
2023/08/28 01:03:52;;;;;;;1.05;0.57;;;24.10;49.90;;;;;;5047947;28;20056;-67
2023/08/28 01:06:21;;;;;;;0.85;0.50;;;24.10;50.00;;;;;;5051473;28;20327;-67
2023/08/28 01:09:13;;;;;;;0.63;0.50;;;24.10;50.00;;;;;;5048431;28;20447;-66
2023/08/28 01:11:55;;;;;;;0.68;0.43;;;24.10;50.00;;;;;;5032422;28;20439;-69
2023/08/28 01:14:25;;;;;;;0.85;0.52;;;24.10;50.60;;;;;;5050881;28;20347;-66
2023/08/28 01:16:57;;;;;;;0.50;0.40;;;24.10;50.00;;;;;;5053854;28;20029;-69
2023/08/28 01:19:29;;;;;;;1.20;0.60;;;24.10;50.10;;;;;;5060372;28;20055;-68
2023/08/28 01:22:14;;;;;;;1.23;0.50;;;24.10;50.00;;;;;;5046845;28;20147;-67
2023/08/28 01:24:48;;;;;;;1.15;0.60;;;24.10;50.00;;;;;;5051956;28;20024;-67
2023/08/28 01:27:16;;;;;;;0.73;0.43;;;24.10;50.10;;;;;;5059437;28;20089;-67
2023/08/28 01:29:42;;;;;;;0.98;0.50;;;24.10;50.10;;;;;;5049915;28;20123;-67
2023/08/28 01:32:08;;;;;;;0.70;0.60;;;24.10;50.10;;;;;;5059393;28;20051;-66
2023/08/28 01:34:35;;;;;;;0.47;0.40;;;24.10;50.10;;;;;;5048968;28;20036;-66
2023/08/28 01:37:11;;;;;;;1.17;0.50;;;24.10;50.10;;;;;;5069779;28;20040;-66
2023/08/28 01:39:46;;;;;;;1.00;0.70;;;24.10;50.20;;;;;;5067836;28;20025;-67
2023/08/28 01:42:15;;;;;;;0.88;0.45;;;24.00;50.00;;;;;;5054714;28;20114;-67
2023/08/28 01:44:43;;;;;;;0.77;0.32;;;24.00;50.10;;;;;;5056785;28;20448;-67
2023/08/28 01:47:09;;;;;;;1.35;0.50;;;24.00;50.10;;;;;;5049038;28;20021;-67
2023/08/28 01:49:35;;;;;;;0.77;0.50;;;24.00;50.10;;;;;;5055841;28;20044;-68
2023/08/28 01:52:01;;;;;;;1.20;0.70;;;24.00;50.10;;;;;;5079415;28;20058;-65
2023/08/28 01:54:27;;;;;;;1.63;0.40;;;24.00;50.10;;;;;;5073751;28;20048;-67
2023/08/28 01:56:53;;;;;;;1.58;0.68;;;24.00;50.10;;;;;;5049784;28;20032;-66
2023/08/28 01:59:19;;;;;;;0.85;0.47;;;24.00;50.10;;;;;;5038092;28;20029;-68
2023/08/28 02:01:45;;;;;;;0.75;0.50;;;24.00;50.20;;;;;;5072315;28;20036;-67
2023/08/28 02:04:12;;;;;;;1.35;0.50;;;24.00;50.20;;;;;;5049734;28;20427;-67
2023/08/28 02:06:38;;;;;;;1.55;0.60;;;24.00;50.20;;;;;;5055531;28;20029;-67
2023/08/28 02:09:04;;;;;;;0.63;0.40;;;24.00;50.20;;;;;;5048928;28;20055;-67
2023/08/28 02:11:30;;;;;;;0.68;0.50;;;24.00;50.20;;;;;;5035558;28;20028;-67
2023/08/28 02:13:55;;;;;;;1.27;0.47;;;24.00;50.20;;;;;;5052169;28;20098;-67
2023/08/28 02:16:21;;;;;;;1.58;0.40;;;24.00;50.20;;;;;;5054630;28;20058;-66
2023/08/28 02:18:48;;;;;;;0.77;0.55;;;24.00;50.20;;;;;;5072913;28;20024;-67
2023/08/28 02:21:14;;;;;;;0.80;0.35;;;24.00;50.20;;;;;;5060120;28;20050;-67
2023/08/28 02:23:40;;;;;;;1.23;0.60;;;23.90;50.10;;;;;;5056250;28;20440;-67
2023/08/28 02:26:06;;;;;;;0.95;0.63;;;23.90;50.10;;;;;;5056401;28;20104;-68
2023/08/28 02:28:32;;;;;;;0.73;0.43;;;23.90;50.10;;;;;;5056615;28;20056;-68
2023/08/28 02:30:59;;;;;;;1.15;0.30;;;23.90;50.10;;;;;;5074078;28;20448;-66
2023/08/28 02:33:25;;;;;;;1.40;0.50;;;23.90;50.10;;;;;;5055505;28;20024;-67
2023/08/28 02:35:51;;;;;;;1.25;0.70;;;23.90;50.20;;;;;;5056484;28;20041;-68
2023/08/28 02:38:18;;;;;;;0.88;0.70;;;23.90;50.10;;;;;;5058589;28;20365;-66
2023/08/28 02:40:44;;;;;;;0.98;0.52;;;23.90;50.10;;;;;;5060552;28;20028;-66
2023/08/28 02:43:10;;;;;;;0.98;0.50;;;23.90;50.10;;;;;;5067208;28;20096;-68
2023/08/28 02:45:39;;;;;;;2.25;0.52;;;23.90;50.20;;;;;;5067799;28;20031;-67
2023/08/28 02:48:05;;;;;;;0.57;0.40;;;23.90;50.20;;;;;;5064497;28;20056;-66
2023/08/28 02:50:33;;;;;;;1.42;0.55;;;23.90;50.20;;;;;;5066313;28;20167;-66
2023/08/28 02:53:00;;;;;;;1.10;0.50;;;23.90;50.20;;;;;;5060034;28;20094;-69
2023/08/28 02:55:26;;;;;;;1.48;0.60;;;23.90;50.20;;;;;;5034049;28;20044;-67
2023/08/28 02:57:52;;;;;;;1.42;0.50;;;23.90;50.20;;;;;;5069130;28;20024;-67
2023/08/28 03:00:18;;;;;;;1.23;0.70;;;23.90;50.20;;;;;;5072584;28;20036;-67
2023/08/28 03:02:46;;;;;;;0.85;0.50;;;23.90;50.20;;;;;;5076398;28;20145;-68
2023/08/28 03:05:12;;;;;;;0.88;0.40;;;23.90;50.10;;;;;;5048122;28;20099;-68
2023/08/28 03:07:38;;;;;;;1.15;0.50;;;23.80;50.00;;;;;;5062321;28;20024;-68
2023/08/28 03:10:05;;;;;;;1.77;0.80;;;23.90;50.10;;;;;;5070824;28;20950;-67
2023/08/28 03:12:31;;;;;;;0.95;0.50;;;23.90;50.10;;;;;;5067591;28;20028;-67
2023/08/28 03:14:57;;;;;;;0.63;0.40;;;23.90;50.10;;;;;;5064787;28;20500;-68
2023/08/28 03:17:22;;;;;;;0.55;0.50;;;23.80;50.00;;;;;;5052212;28;20039;-67
2023/08/28 03:19:48;;;;;;;0.77;0.57;;;23.80;50.00;;;;;;5066239;28;20036;-66
2023/08/28 03:22:14;;;;;;;1.48;0.50;;;23.80;50.00;;;;;;5057485;28;20028;-67
2023/08/28 03:24:40;;;;;;;1.17;0.50;;;23.80;50.00;;;;;;5044992;28;20479;-66
2023/08/28 03:27:06;;;;;;;0.68;0.50;;;23.80;50.00;;;;;;5049815;28;20423;-68
2023/08/28 03:29:32;;;;;;;1.35;0.80;;;23.80;50.00;;;;;;5051251;28;20073;-67
2023/08/28 03:31:58;;;;;;;2.25;0.73;;;23.80;50.10;;;;;;5067914;28;20029;-68
2023/08/28 03:34:24;;;;;;;0.80;0.40;;;23.80;50.10;;;;;;5065734;28;20044;-67
2023/08/28 03:36:56;;;;;;;0.98;0.57;;;23.80;50.10;;;;;;5057469;28;20024;-66
2023/08/28 03:39:22;;;;;;;0.70;0.52;;;23.80;50.10;;;;;;5031216;28;20036;-67
2023/08/28 03:41:47;;;;;;;0.70;0.50;;;23.80;50.10;;;;;;5070796;28;20945;-67
2023/08/28 03:44:13;;;;;;;1.33;0.60;;;23.80;50.10;;;;;;5034205;28;20303;-67
2023/08/28 03:46:39;;;;;;;1.40;0.63;;;23.80;50.10;;;;;;5063577;28;20454;-69
2023/08/28 03:49:05;;;;;;;0.98;0.60;;;23.80;50.10;;;;;;5053884;28;20061;-66
2023/08/28 03:51:32;;;;;;;0.88;0.73;;;23.80;50.10;;;;;;5053751;28;20408;-67
2023/08/28 03:53:58;;;;;;;0.47;0.38;;;23.80;50.20;;;;;;5068570;28;20119;-67
2023/08/28 03:56:24;;;;;;;1.15;0.50;;;23.80;50.20;;;;;;5049647;28;20126;-68
2023/08/28 03:58:50;;;;;;;0.75;0.55;;;23.80;50.20;;;;;;5052384;28;20024;-65
2023/08/28 04:01:16;;;;;;;0.77;0.40;;;23.80;50.20;;;;;;5051810;28;20668;-67
2023/08/28 04:03:41;;;;;;;1.40;0.50;;;23.70;50.10;;;;;;5043729;28;20020;-67
2023/08/28 04:06:08;;;;;;;0.43;0.32;;;23.80;50.20;;;;;;5053886;28;20035;-67
2023/08/28 04:08:34;;;;;;;0.50;0.40;;;23.70;50.10;;;;;;5065646;28;20054;-65
2023/08/28 04:11:01;;;;;;;0.47;0.40;;;23.80;50.20;;;;;;5077055;28;20186;-66
2023/08/28 04:13:27;;;;;;;0.68;0.45;;;23.70;50.20;;;;;;5046889;28;20418;-65
2023/08/28 04:15:53;;;;;;;1.00;0.63;;;23.70;50.20;;;;;;5071333;28;20044;-67
2023/08/28 04:18:19;;;;;;;0.80;0.47;;;23.70;50.20;;;;;;5065870;28;20184;-66
2023/08/28 04:20:45;;;;;;;1.10;0.73;;;23.70;50.20;;;;;;5074004;28;20339;-67
2023/08/28 04:23:12;;;;;;;1.38;0.80;;;23.70;50.20;;;;;;5068826;28;20028;-66
2023/08/28 04:25:38;;;;;;;1.00;0.55;;;23.70;50.20;;;;;;5066145;28;20029;-66
2023/08/28 04:28:04;;;;;;;1.13;0.40;;;23.70;50.20;;;;;;5074363;28;20109;-69
2023/08/28 04:30:32;;;;;;;0.43;0.40;;;23.70;50.20;;;;;;5073082;28;20126;-66
2023/08/28 04:32:57;;;;;;;1.25;0.63;;;23.70;50.30;;;;;;5035101;28;20142;-66
2023/08/28 04:35:23;;;;;;;1.15;0.50;;;23.70;50.30;;;;;;5033924;28;20120;-68
2023/08/28 04:37:50;;;;;;;0.82;0.40;;;23.70;50.30;;;;;;5067006;28;20363;-68
2023/08/28 04:40:16;;;;;;;0.73;0.50;;;23.70;50.30;;;;;;5074739;28;20078;-67
2023/08/28 04:42:42;;;;;;;1.27;0.50;;;23.70;50.90;;;;;;5062337;28;20040;-68
2023/08/28 04:45:08;;;;;;;1.95;0.55;;;23.70;50.30;;;;;;5057032;28;20048;-66
2023/08/28 04:47:34;;;;;;;1.02;0.50;;;23.70;50.30;;;;;;5053895;28;20075;-66
2023/08/28 04:50:00;;;;;;;0.65;0.45;;;23.70;50.30;;;;;;5076464;28;20041;-67
2023/08/28 04:52:27;;;;;;;1.83;0.65;;;23.70;50.30;;;;;;5057807;28;20075;-66
2023/08/28 04:54:53;;;;;;;1.10;0.60;;;23.70;50.40;;;;;;5081092;28;20410;-67
2023/08/28 04:57:19;;;;;;;0.80;0.40;;;23.70;50.40;;;;;;5065373;28;20020;-66
2023/08/28 04:59:45;;;;;;;1.40;0.70;;;23.60;50.30;;;;;;5060692;28;20151;-67
2023/08/28 05:02:11;;;;;;;0.50;0.50;;;23.70;50.40;;;;;;5047448;28;20175;-67
2023/08/28 05:04:37;;;;;;;1.30;0.60;;;23.60;50.30;;;;;;5060403;28;20024;-67
2023/08/28 05:07:07;;;;;;;0.45;0.45;;;23.70;50.40;;;;;;5073369;28;20032;-67
2023/08/28 05:09:34;;;;;;;1.17;0.50;;;23.70;50.40;;;;;;5076517;28;20109;-68
2023/08/28 05:12:00;;;;;;;0.52;0.50;;;23.60;50.40;;;;;;5079296;28;20061;-65
2023/08/28 05:14:26;;;;;;;1.20;0.60;;;23.60;50.40;;;;;;5064822;28;20052;-67
2023/08/28 05:16:52;;;;;;;0.82;0.50;;;23.70;50.40;;;;;;5080763;28;20097;-67
2023/08/28 05:19:17;;;;;;;2.17;0.52;;;23.70;50.50;;;;;;5057874;28;20115;-68
2023/08/28 05:21:43;;;;;;;1.13;0.50;;;23.70;50.40;;;;;;5061551;28;20380;-68
2023/08/28 05:24:09;;;;;;;0.68;0.47;;;23.60;50.40;;;;;;5060898;28;20398;-69
2023/08/28 05:26:35;;;;;;;1.20;0.70;;;23.70;50.50;;;;;;5082537;28;20020;-66
2023/08/28 05:29:01;;;;;;;3.20;0.50;;;23.70;50.60;;;;;;5062009;28;20104;-66
2023/08/28 05:31:27;;;;;;;1.02;0.70;;;23.60;50.50;;;;;;5057618;28;21567;-67
2023/08/28 05:33:53;;;;;;;1.67;0.82;;;23.60;50.50;;;;;;5079937;28;20029;-67
2023/08/28 05:36:20;;;;;;;0.65;0.65;;;23.60;50.50;;;;;;5066309;28;20427;-66
2023/08/28 05:38:46;;;;;;;1.27;0.70;;;23.60;50.50;;;;;;5079032;28;20027;-66
2023/08/28 05:41:12;;;;;;;1.27;0.60;;;23.60;50.60;;;;;;5078510;28;20121;-67
2023/08/28 05:43:38;;;;;;;1.10;0.75;;;23.60;50.60;;;;;;5062236;28;20064;-66
2023/08/28 05:46:03;;;;;;;0.52;0.50;;;23.70;50.70;;;;;;5082167;28;20024;-68
2023/08/28 05:48:29;;;;;;;0.75;0.70;;;23.60;50.70;;;;;;5048493;28;20045;-67
2023/08/28 05:50:55;;;;;;;1.13;0.60;;;23.60;50.70;;;;;;5073279;28;20047;-68
2023/08/28 05:53:21;;;;;;;1.25;0.70;;;23.60;50.70;;;;;;5057481;28;20433;-68
2023/08/28 05:55:47;;;;;;;1.23;0.70;;;23.60;50.80;;;;;;5068192;28;20024;-66
2023/08/28 05:58:13;;;;;;;1.20;0.70;;;23.60;50.80;;;;;;5044606;28;20044;-67
2023/08/28 06:00:39;;;;;;;0.80;0.70;;;23.60;50.80;;;;;;5066767;28;20036;-68
2023/08/28 06:03:06;;;;;;;1.02;0.63;;;23.60;50.90;;;;;;5068062;28;20398;-66
2023/08/28 06:05:32;;;;;;;0.85;0.68;;;23.60;50.90;;;;;;5070460;28;20020;-67
2023/08/28 06:07:58;;;;;;;0.90;0.68;;;23.60;50.90;;;;;;5049072;28;20124;-69
2023/08/28 06:10:24;;;;;;;1.92;0.80;;;23.60;50.90;;;;;;5062926;28;20400;-66
2023/08/28 06:12:50;;;;;;;1.02;0.63;;;23.60;50.90;;;;;;5064424;28;20061;-67
2023/08/28 06:15:17;;;;;;;1.05;0.82;;;23.60;51.00;;;;;;5043702;28;20035;-68
2023/08/28 06:17:49;;;;;;;1.52;0.70;;;23.60;51.00;;;;;;5079180;28;20031;-65
2023/08/28 06:20:15;;;;;;;0.85;0.73;;;23.60;51.00;;;;;;5056382;28;20119;-68
2023/08/28 06:22:45;;;;;;;1.00;0.57;;;23.60;51.10;;;;;;5073247;28;20035;-67
2023/08/28 06:25:11;;;;;;;1.70;0.70;;;23.70;51.10;;;;;;5066127;28;20408;-68
2023/08/28 06:27:38;;;;;;;1.50;0.75;;;23.60;51.10;;;;;;5075518;28;20067;-69
2023/08/28 06:30:06;;;;;;;1.45;1.02;;;23.60;51.20;;;;;;5029396;28;20123;-67
2023/08/28 06:32:33;;;;;;;1.23;0.75;;;23.60;51.20;;;;;;5080905;28;20111;-67
2023/08/28 06:35:02;;;;;;;1.30;0.85;;;23.60;51.90;;;;;;5066185;28;20467;-67
2023/08/28 06:37:28;;;;;;;2.67;0.85;;;23.70;51.60;;;;;;5066680;28;20039;-67
2023/08/28 06:39:54;;;;;;;2.00;0.80;;;23.60;51.30;;;;;;5073746;28;20028;-67
2023/08/28 06:42:20;;;;;;;0.85;0.60;;;23.70;51.40;;;;;;5069164;28;20023;-69
2023/08/28 06:44:46;;;;;;;1.63;0.90;;;23.70;51.40;;;;;;5047999;28;20025;-68
2023/08/28 06:47:13;;;;;;;1.80;0.85;;;23.70;51.50;;;;;;5064886;28;20118;-68
2023/08/28 06:49:39;;;;;;;1.77;0.77;;;23.70;51.50;;;;;;5026280;28;20060;-67
2023/08/28 06:52:05;;;;;;;2.13;0.80;;;23.70;51.50;;;;;;5026783;28;20333;-67
2023/08/28 06:54:34;;;;;;;2.40;1.08;;;23.70;51.60;;;;;;5027245;28;20029;-67
2023/08/28 06:57:00;;;;;;;2.05;0.88;;;23.70;51.60;;;;;;5027278;28;20053;-67
2023/08/28 06:59:26;;;;;;;3.53;1.20;;;23.70;51.60;;;;;;5031093;28;20107;-69
2023/08/28 07:01:52;;;;;;;1.63;0.98;;;23.70;51.70;;;;;;5022762;28;20445;-67
2023/08/28 07:04:18;;;;;;;2.50;1.00;;;23.80;51.70;;;;;;5025649;28;20099;-68
2023/08/28 07:06:44;;;;;;;1.42;0.77;;;23.70;51.70;;;;;;5024884;28;20429;-68
2023/08/28 07:09:10;;;;;;;1.27;0.70;;;23.80;51.70;;;;;;5025502;28;20452;-67
2023/08/28 07:11:36;;;;;;;1.58;0.77;;;23.70;51.70;;;;;;5038136;28;20048;-67
2023/08/28 07:14:03;;;;;;;1.30;0.90;;;23.80;51.80;;;;;;5023201;28;20040;-67
2023/08/28 07:16:29;;;;;;;2.75;0.90;;;23.80;51.80;;;;;;5021964;28;20108;-69
2023/08/28 07:18:55;;;;;;;1.23;0.75;;;23.80;51.80;;;;;;5030136;28;20070;-69
2023/08/28 07:21:20;;;;;;;1.23;0.80;;;23.80;51.80;;;;;;5030934;28;20021;-69
2023/08/28 07:23:46;;;;;;;2.22;1.05;;;23.80;51.80;;;;;;5037652;28;20647;-68
2023/08/28 07:26:12;;;;;;;1.50;0.80;;;23.80;51.80;;;;;;5041758;28;20056;-68
2023/08/28 07:28:38;;;;;;;1.42;0.90;;;23.80;51.90;;;;;;5042829;28;20021;-67
2023/08/28 07:31:04;;;;;;;1.75;1.10;;;23.80;51.90;;;;;;5042089;28;20033;-68
2023/08/28 07:33:30;;;;;;;1.92;1.10;;;23.80;51.90;;;;;;5045075;28;20021;-67
2023/08/28 07:35:56;;;;;;;2.10;1.20;;;23.80;51.90;;;;;;5045394;28;20040;-68
2023/08/28 07:38:22;;;;;;;3.00;1.25;;;23.80;51.90;;;;;;5038200;28;20420;-68
2023/08/28 07:40:49;;;;;;;1.83;1.05;;;23.80;52.00;;;;;;5040695;28;20077;-68
2023/08/28 07:43:15;;;;;;;2.58;1.17;;;23.90;52.00;;;;;;5031886;28;20033;-69
2023/08/28 07:45:41;;;;;;;3.38;1.50;;;23.90;52.10;;;;;;5033197;28;20475;-68
2023/08/28 07:48:07;;;;;;;3.60;1.20;;;23.90;52.20;;;;;;5043335;28;20052;-68
2023/08/28 07:50:33;;;;;;;3.63;1.50;;;23.90;52.30;;;;;;5076733;28;20499;-68
2023/08/28 07:53:00;;;;;;;2.05;1.02;;;23.90;52.30;;;;;;5083653;28;20408;-68
2023/08/28 07:55:26;;;;;;;2.70;1.15;;;23.90;52.40;;;;;;5075586;28;20054;-68
2023/08/28 07:57:52;;;;;;;1.80;1.20;;;23.90;52.40;;;;;;5075869;28;20043;-68
2023/08/28 08:00:21;;;;;;;2.25;1.23;;;23.90;52.40;;;;;;5060760;28;20030;-68
2023/08/28 08:02:49;;;;;;;2.50;1.27;;;23.90;52.30;;;;;;5060246;28;20024;-68
2023/08/28 08:05:15;;;;;;;1.48;1.10;;;23.90;52.30;;;;;;5074086;28;20017;-69
2023/08/28 08:07:41;;;;;;;2.03;1.02;;;24.00;52.40;;;;;;5070176;28;20020;-67
2023/08/28 08:10:11;;;;;;;1.88;1.27;;;23.90;52.40;;;;;;5061887;28;20121;-68
2023/08/28 08:12:38;;;;;;;2.45;1.20;;;24.00;52.40;;;;;;5046645;28;20496;-68
2023/08/28 08:15:06;;;;;;;3.42;1.35;;;24.00;52.40;;;;;;5074797;28;20119;-68
2023/08/28 08:17:33;;;;;;;1.75;1.10;;;24.00;52.40;;;;;;5088560;28;20021;-68
2023/08/28 08:19:59;;;;;;;1.63;1.20;;;24.00;52.40;;;;;;5090815;28;20046;-68
2023/08/28 08:22:25;;;;;;;1.92;1.00;;;24.00;52.40;;;;;;5092248;28;20031;-67
2023/08/28 08:24:51;;;;;;;2.08;1.00;;;24.00;52.40;;;;;;5058331;28;20032;-67
2023/08/28 08:27:17;;;;;;;1.98;1.20;;;24.00;52.40;;;;;;5067960;28;20036;-64
2023/08/28 08:29:43;;;;;;;2.75;1.00;;;24.00;52.50;;;;;;5077983;28;20315;-68
2023/08/28 08:32:09;;;;;;;2.70;1.10;;;24.00;52.50;;;;;;5072788;28;20357;-69
2023/08/28 08:34:36;;;;;;;1.15;0.82;;;24.00;52.50;;;;;;5072272;28;20036;-68
2023/08/28 08:37:02;;;;;;;2.97;0.80;;;24.10;52.50;;;;;;5066326;28;20053;-70
2023/08/28 08:39:28;;;;;;;2.47;1.20;;;24.10;52.50;;;;;;5075778;28;20371;-68
2023/08/28 08:41:57;;;;;;;2.03;1.10;;;24.10;52.70;;;;;;5073641;28;20029;-68
2023/08/28 08:44:23;;;;;;;2.53;1.20;;;24.10;52.80;;;;;;5046394;28;20059;-67
2023/08/28 08:46:50;;;;;;;2.35;0.90;;;24.10;52.80;;;;;;5053061;28;20028;-69
2023/08/28 08:49:20;;;;;;;2.10;1.05;;;24.20;52.80;;;;;;5049323;28;20053;-70
2023/08/28 08:51:50;;;;;;;1.85;0.98;;;24.30;52.70;;;;;;5052687;28;20020;-69
2023/08/28 08:54:24;;;;;;;1.38;0.82;;;24.30;52.60;;;;;;5053466;28;20092;-68
2023/08/28 08:56:54;;;;;;;2.70;1.08;;;24.50;52.50;;;;;;5074969;28;20107;-65
2023/08/28 08:59:21;;;;;;;1.85;1.10;;;24.60;52.30;;;;;;5047659;28;20164;-68
2023/08/28 09:01:48;;;;;;;1.70;0.80;;;24.70;52.10;;;;;;5078344;28;20170;-69
2023/08/28 09:04:14;;;;;;;1.75;0.80;;;24.70;51.80;;;;;;5077283;28;20084;-67
2023/08/28 09:06:41;;;;;;;1.95;0.80;;;24.70;51.60;;;;;;5077130;28;20404;-66
2023/08/28 09:09:11;;;;;;;1.67;0.82;;;24.80;51.40;;;;;;5072822;28;20428;-69
2023/08/28 09:11:40;;;;;;;1.33;0.80;;;24.80;51.20;;;;;;5062539;28;20056;-66
2023/08/28 09:14:06;;;;;;;1.15;0.55;;;24.80;51.00;;;;;;5081717;28;20350;-67
2023/08/28 09:16:35;;;;;;;1.77;0.70;;;24.90;50.90;;;;;;5076003;28;20103;-66
2023/08/28 09:19:02;;;;;;;1.30;0.70;;;24.80;50.70;;;;;;5075243;28;20020;-68
2023/08/28 09:21:37;;;;;;;1.30;0.70;;;24.80;50.50;;;;;;5060108;28;20035;-67
2023/08/28 09:24:08;;;;;;;1.17;0.55;;;24.90;50.40;;;;;;5078410;28;20043;-69
2023/08/28 09:26:37;;;;;;;1.58;0.60;;;24.90;50.10;;;;;;5082251;28;20024;-67
2023/08/28 09:29:06;;;;;;;0.95;0.60;;;24.90;49.90;;;;;;5074077;28;20032;-68
2023/08/28 09:31:37;;;;;;;0.57;0.40;;;24.80;49.70;;;;;;5062322;28;20036;-67
2023/08/28 09:34:04;;;;;;;1.83;0.50;;;24.90;49.60;;;;;;5070383;28;20130;-66
2023/08/28 09:36:35;;;;;;;1.27;0.65;;;24.80;49.60;;;;;;5082111;28;20020;-65
2023/08/28 09:39:06;;;;;;;1.23;0.40;;;24.80;49.70;;;;;;5076113;28;21556;-65
2023/08/28 09:41:45;;;;;;;0.82;0.57;;;24.90;49.80;;;;;;5071131;28;20462;-64
2023/08/28 09:44:13;;;;;;;0.65;0.50;;;24.80;49.90;;;;;;5073934;28;20119;-65
2023/08/28 09:46:42;;;;;;;1.40;0.60;;;24.80;50.10;;;;;;5080974;28;20016;-64
2023/08/28 09:49:10;;;;;;;0.57;0.50;;;24.90;50.30;;;;;;5081362;28;20049;-67
2023/08/28 09:51:42;;;;;;;0.93;0.60;;;24.90;50.40;;;;;;5077510;28;20124;-66
2023/08/28 09:54:10;;;;;;;1.70;0.50;;;24.90;50.40;;;;;;5055952;28;20870;-67
2023/08/28 09:56:38;;;;;;;0.90;0.55;;;24.90;50.40;;;;;;5061089;28;20073;-63
2023/08/28 09:59:04;;;;;;;0.60;0.50;;;24.80;50.30;;;;;;5078085;28;20347;-63
2023/08/28 10:01:35;;;;;;;1.48;0.45;;;24.90;50.20;;;;;;5061223;28;20047;-62
2023/08/28 10:04:09;;;;;;;1.10;0.60;;;24.90;50.10;;;;;;5082480;28;20020;-63
2023/08/28 10:06:39;;;;;;;0.98;0.50;;;24.80;49.90;;;;;;5063527;28;20044;-65
2023/08/28 10:09:10;;;;;;;0.77;0.30;;;24.80;49.70;;;;;;5077738;28;20119;-66
2023/08/28 10:11:38;;;;;;;1.25;0.40;;;24.80;49.60;;;;;;5078892;28;20036;-66
2023/08/28 10:14:05;;;;;;;1.00;0.47;;;24.90;49.50;;;;;;5086501;28;20065;-67
2023/08/28 10:16:41;;;;;;;1.00;0.50;;;24.80;49.40;;;;;;5079628;28;20416;-63
2023/08/28 10:19:21;;;;;;;1.40;0.50;;;24.90;49.30;;;;;;5075007;28;20032;-66
2023/08/28 10:21:48;;;;;;;0.55;0.40;;;24.90;49.30;;;;;;5084214;28;20151;-64
2023/08/28 10:24:16;;;;;;;1.25;0.50;;;24.80;49.30;;;;;;5079265;28;20028;-61
2023/08/28 10:26:43;;;;;;;1.02;0.63;;;24.80;49.50;;;;;;5076802;28;20309;-65
2023/08/28 10:29:10;;;;;;;1.55;0.85;;;24.90;49.60;;;;;;5062295;28;20102;-69
2023/08/28 10:31:38;;;;;;;0.85;0.50;;;24.90;49.60;;;;;;5071649;28;20039;-66
2023/08/28 10:34:09;;;;;;;1.13;0.45;;;24.90;49.70;;;;;;5074023;28;20059;-71
2023/08/28 10:36:36;;;;;;;0.80;0.50;;;24.90;49.70;;;;;;5068673;28;20467;-67
2023/08/28 10:39:03;;;;;;;1.00;0.47;;;24.90;49.60;;;;;;5070242;28;20039;-67
2023/08/28 10:41:30;;;;;;;1.33;0.52;;;24.90;49.50;;;;;;5066593;28;20091;-71
2023/08/28 10:44:01;;;;;;;1.40;0.70;;;24.90;49.50;;;;;;5048416;28;20097;-68
2023/08/28 10:46:28;;;;;;;0.88;0.40;;;24.90;49.40;;;;;;5072738;28;20438;-69
2023/08/28 10:49:03;;;;;;;1.15;0.60;;;25.00;49.40;;;;;;5071836;28;20101;-63
2023/08/28 10:51:32;;;;;;;1.15;0.60;;;25.00;49.20;;;;;;5051921;28;20048;-65
2023/08/28 10:54:04;;;;;;;0.75;0.40;;;25.00;49.00;;;;;;5065195;28;20036;-66
2023/08/28 10:56:35;;;;;;;0.90;0.50;;;25.00;48.90;;;;;;5072432;28;20029;-67
2023/08/28 10:59:25;;;;;;;0.35;0.30;;;25.00;48.80;;;;;;5062312;28;20029;-67
2023/08/28 11:02:00;;;;;;;1.05;0.47;;;25.00;48.60;;;;;;5045716;28;20111;-66
2023/08/28 11:04:36;;;;;;;0.50;0.30;;;25.00;48.40;;;;;;5074897;28;20056;-67
2023/08/28 11:07:03;;;;;;;2.35;0.68;;;25.10;48.50;;;;;;5071947;28;20029;-65
2023/08/28 11:09:29;;;;;;;0.93;0.50;;;25.10;48.50;;;;;;5073082;28;20086;-65
2023/08/28 11:11:58;;;;;;;1.63;0.70;;;25.10;48.40;;;;;;5071633;28;20058;-66
2023/08/28 11:14:41;;;;;;;0.52;0.40;;;25.10;48.40;;;;;;5072146;28;20147;-66
2023/08/28 11:17:17;;;;;;;0.65;0.35;;;25.20;48.30;;;;;;5053674;28;20024;-66
2023/08/28 11:19:56;;;;;;;0.63;0.30;;;25.20;48.10;;;;;;5069695;28;20033;-64
2023/08/28 11:22:39;;;;;;;;;;;25.20;47.90;;;;;;5046042;28;20111;-66
2023/08/28 11:25:14;;;;;;;0.30;0.30;;;25.20;47.90;;;;;;5075744;28;19915;-66
2023/08/28 11:27:49;;;;;;;0.25;0.25;;;25.20;47.60;;;;;;5070441;28;20092;-66
2023/08/28 11:30:21;;;;;;;0.38;0.22;;;25.30;47.40;;;;;;5066138;28;20040;-65
2023/08/28 11:32:51;;;;;;;0.88;0.57;;;25.30;47.10;;;;;;5068343;28;20033;-66
2023/08/28 11:35:17;;;;;;;0.57;0.30;;;25.50;46.90;;;;;;5048796;28;20047;-69
2023/08/28 11:37:53;;;;;;;0.77;0.40;;;25.60;46.70;;;;;;5066798;28;20037;-68
2023/08/28 11:40:25;;;;;;;1.08;0.50;;;25.60;46.60;;;;;;5069602;28;20320;-66
2023/08/28 11:43:06;;;;;;;0.60;0.30;;;25.70;46.50;;;;;;5071801;28;20029;-68
2023/08/28 11:45:32;;;;;;;1.27;0.40;;;25.80;46.30;;;;;;5063705;28;20151;-65
2023/08/28 11:48:03;;;;;;;0.65;0.40;;;25.90;46.20;;;;;;5074757;28;20049;-66
2023/08/28 11:50:29;;;;;;;0.40;0.30;;;25.90;45.90;;;;;;5066004;28;20063;-68
2023/08/28 11:52:55;;;;;;;0.70;0.40;;;25.90;45.70;;;;;;5066959;28;20037;-65
2023/08/28 11:55:21;;;;;;;0.65;0.40;;;25.90;45.60;;;;;;5065747;28;20041;-67
2023/08/28 11:57:50;;;;;;;0.85;0.60;;;26.00;45.50;;;;;;5057819;28;20297;-65
2023/08/28 12:00:16;;;;;;;0.80;0.30;;;26.00;45.50;;;;;;5054437;28;20141;-66
2023/08/28 12:02:44;;;;;;;0.68;0.32;;;25.90;45.50;;;;;;5069957;28;20087;-68
2023/08/28 12:05:12;;;;;;;1.10;0.30;;;25.90;45.50;;;;;;5063166;28;20028;-67
2023/08/28 12:07:43;;;;;;;0.75;0.38;;;26.00;45.60;;;;;;5065941;28;20028;-65
2023/08/28 12:10:09;;;;;;;0.90;0.40;;;25.90;45.30;;;;;;5047351;28;20111;-67
2023/08/28 12:12:36;;;;;;;0.30;0.20;;;25.90;45.20;;;;;;5045787;28;20356;-67
2023/08/28 12:15:03;;;;;;;0.93;0.40;;;25.90;45.10;;;;;;5065818;28;20561;-68
2023/08/28 12:17:29;;;;;;;0.75;0.30;;;25.90;45.00;;;;;;5065443;28;20036;-67
2023/08/28 12:19:56;;;;;;;0.30;0.28;;;25.90;44.90;;;;;;5069327;28;20020;-65
2023/08/28 12:22:22;;;;;;;0.90;0.38;;;25.90;44.90;;;;;;5066759;28;20032;-68
2023/08/28 12:24:50;;;;;;;2.00;0.65;;;25.90;44.90;;;;;;5065535;28;20033;-62
2023/08/28 12:27:23;;;;;;;1.85;0.93;;;25.90;45.00;;;;;;5068448;28;20093;-66
2023/08/28 12:29:49;;;;;;;2.65;1.23;;;25.90;45.00;;;;;;5058786;28;20158;-66
2023/08/28 12:32:17;;;;;;;5.38;1.27;;;25.90;45.00;;;;;;5046531;28;20016;-66
2023/08/28 12:34:47;;;;;;;3.85;1.20;;;25.90;45.10;;;;;;5067593;28;20044;-66
2023/08/28 12:37:14;;;;;;;3.05;1.30;;;25.90;45.20;;;;;;5046465;28;20043;-66
2023/08/28 12:39:51;;;;;;;4.65;1.20;;;25.90;45.20;;;;;;5069778;28;20038;-66
2023/08/28 12:42:18;;;;;;;3.33;0.90;;;25.90;45.20;;;;;;5067550;28;20123;-66
2023/08/28 12:44:44;;;;;;;3.92;0.73;;;25.90;45.10;;;;;;5065686;28;20033;-65
2023/08/28 12:47:11;;;;;;;2.78;0.70;;;25.90;45.00;;;;;;5065210;28;20423;-67
2023/08/28 12:49:40;;;;;;;2.97;0.60;;;25.90;44.90;;;;;;5064770;28;20052;-67